Погода Климова Горана неделю

Тверская область, Россия

20 - 26 мая
  • 20мая
    Сегодня
    +10°
    +27°
    Облачно с прояснениями
    ВремяПогодаТемператураВлажностьДавлениеВетер, м/сВероятность осадков
    00:00Ясно и безоблачно+13°C66 %741 мм1.0 м/с2 %
    03:00Ясно и безоблачно+12°C68 %741 мм1.1 м/с2 %
    06:00Ясно и безоблачно+13°C73 %742 мм1.1 м/с2 %
    09:00Ясно и безоблачно+20°C67 %742 мм1.4 м/с2 %
    12:00Ясно и безоблачно+23°C55 %742 мм2.4 м/с3 %
    15:00Облачно с прояснениями+21°C74 %743 мм2.2 м/с30 %
    18:00Облачно с прояснениями+19°C69 %742 мм1.2 м/с37 %
    21:00Облачно с прояснениями+16°C86 %743 мм1.1 м/с15 %
  • 21мая
    Вторник
    +7°
    +22°
    Практически безоблачно
    ВремяПогодаТемператураВлажностьДавлениеВетер, м/сВероятность осадков
    00:00Небольшая облачность+12°C93 %743 мм0.7 м/с9 %
    03:00Практически безоблачно+11°C96 %744 мм0.6 м/с2 %
    06:00Практически безоблачно+11°C73 %745 мм1.0 м/с2 %
    09:00Ясно и безоблачно+16°C60 %746 мм1.3 м/с2 %
    12:00Ясно и безоблачно+21°C39 %746 мм2.0 м/с5 %
    15:00Практически безоблачно+22°C38 %746 мм2.5 м/с5 %
    18:00Ясно и безоблачно+21°C31 %746 мм1.8 м/с5 %
    21:00Ясно и безоблачно+16°C56 %746 мм1.0 м/с1 %
  • 22мая
    Среда
    +7°
    +23°
    Ясно и безоблачно
    ВремяПогодаТемператураВлажностьДавлениеВетер, м/сВероятность осадков
    00:00Ясно и безоблачно+11°C65 %746 мм1.3 м/с2 %
    03:00Ясно и безоблачно+8°C59 %747 мм1.0 м/с2 %
    06:00Ясно и безоблачно+8°C72 %747 мм1.1 м/с1 %
    09:00Ясно и безоблачно+16°C54 %748 мм1.7 м/с2 %
    12:00Ясно и безоблачно+20°C41 %748 мм2.2 м/с2 %
    15:00Ясно и безоблачно+22°C35 %748 мм2.3 м/с2 %
    18:00Практически безоблачно+22°C36 %747 мм2.0 м/с2 %
    21:00Ясно и безоблачно+17°C53 %748 мм1.6 м/с2 %
  • 23мая
    Четверг
    +8°
    +23°
    Ясно и безоблачно
    ВремяПогодаТемператураВлажностьДавлениеВетер, м/сВероятность осадков
    00:00Ясно и безоблачно+11°C61 %749 мм1.5 м/с2 %
    03:00Ясно и безоблачно+9°C66 %749 мм1.1 м/с2 %
    06:00Ясно и безоблачно+9°C70 %750 мм1.2 м/с2 %
    09:00Ясно и безоблачно+17°C54 %751 мм1.9 м/с2 %
    12:00Ясно и безоблачно+20°C38 %751 мм2.5 м/с2 %
    15:00Ясно и безоблачно+22°C37 %751 мм2.6 м/с2 %
    18:00Ясно и безоблачно+22°C35 %750 мм2.1 м/с2 %
    21:00Ясно и безоблачно+17°C53 %751 мм1.2 м/с2 %
  • 24мая
    Пятница
    +9°
    +23°
    Небольшая облачность
    ВремяПогодаТемператураВлажностьДавлениеВетер, м/сВероятность осадков
    00:00Ясно и безоблачно+12°C62 %752 мм1.1 м/с2 %
    03:00Ясно и безоблачно+9°C74 %752 мм0.8 м/с2 %
    06:00Ясно и безоблачно+10°C77 %753 мм0.8 м/с2 %
    09:00Ясно и безоблачно+18°C55 %754 мм1.4 м/с2 %
    12:00Практически безоблачно+21°C38 %754 мм2.4 м/с2 %
    15:00Небольшая облачность+23°C34 %753 мм2.6 м/с3 %
    18:00Ясно и безоблачно+23°C37 %752 мм2.0 м/с2 %
    21:00Ясно и безоблачно+18°C54 %752 мм1.4 м/с2 %
Мы используем cookies
Соглашаюсь